sensor_id;sensor_type;location;lat;lon;timestamp;P1;durP1;ratioP1;P2;durP2;ratioP2
22186;SDS011;11259;52.146;12.844;2023-04-24T00:02:07;1.70;;;1.50;;
22186;SDS011;11259;52.146;12.844;2023-04-24T00:04:32;1.83;;;1.60;;
22186;SDS011;11259;52.146;12.844;2023-04-24T00:06:57;2.17;;;1.92;;
22186;SDS011;11259;52.146;12.844;2023-04-24T00:09:23;2.08;;;1.88;;
22186;SDS011;11259;52.146;12.844;2023-04-24T00:11:48;2.00;;;1.58;;
22186;SDS011;11259;52.146;12.844;2023-04-24T00:14:13;1.75;;;1.52;;
22186;SDS011;11259;52.146;12.844;2023-04-24T00:16:39;2.60;;;2.03;;
22186;SDS011;11259;52.146;12.844;2023-04-24T00:19:05;2.70;;;1.90;;
22186;SDS011;11259;52.146;12.844;2023-04-24T00:21:31;1.75;;;1.55;;
22186;SDS011;11259;52.146;12.844;2023-04-24T00:23:56;2.28;;;1.60;;
22186;SDS011;11259;52.146;12.844;2023-04-24T00:26:21;2.53;;;1.80;;
22186;SDS011;11259;52.146;12.844;2023-04-24T00:28:47;3.58;;;2.05;;
22186;SDS011;11259;52.146;12.844;2023-04-24T00:31:12;6.88;;;2.03;;
22186;SDS011;11259;52.146;12.844;2023-04-24T00:33:37;3.47;;;2.22;;
22186;SDS011;11259;52.146;12.844;2023-04-24T00:36:04;2.20;;;2.00;;
22186;SDS011;11259;52.146;12.844;2023-04-24T00:38:30;2.88;;;2.20;;
22186;SDS011;11259;52.146;12.844;2023-04-24T00:40:55;3.25;;;2.95;;
22186;SDS011;11259;52.146;12.844;2023-04-24T00:43:20;3.45;;;2.20;;
22186;SDS011;11259;52.146;12.844;2023-04-24T00:45:46;2.88;;;2.45;;
22186;SDS011;11259;52.146;12.844;2023-04-24T00:48:11;2.65;;;2.08;;
22186;SDS011;11259;52.146;12.844;2023-04-24T00:50:37;3.08;;;2.25;;
22186;SDS011;11259;52.146;12.844;2023-04-24T00:53:04;2.58;;;2.15;;
22186;SDS011;11259;52.146;12.844;2023-04-24T00:55:29;3.40;;;2.35;;
22186;SDS011;11259;52.146;12.844;2023-04-24T00:57:55;3.17;;;1.92;;
22186;SDS011;11259;52.146;12.844;2023-04-24T01:00:20;2.53;;;2.03;;
22186;SDS011;11259;52.146;12.844;2023-04-24T01:02:46;2.88;;;2.35;;
22186;SDS011;11259;52.146;12.844;2023-04-24T01:05:12;2.53;;;2.13;;
22186;SDS011;11259;52.146;12.844;2023-04-24T01:07:38;3.78;;;2.45;;
22186;SDS011;11259;52.146;12.844;2023-04-24T01:10:05;3.25;;;2.53;;
22186;SDS011;11259;52.146;12.844;2023-04-24T01:12:32;3.00;;;2.40;;
22186;SDS011;11259;52.146;12.844;2023-04-24T01:14:57;3.33;;;2.40;;
22186;SDS011;11259;52.146;12.844;2023-04-24T01:17:23;3.15;;;2.33;;
22186;SDS011;11259;52.146;12.844;2023-04-24T01:19:48;2.53;;;2.30;;
22186;SDS011;11259;52.146;12.844;2023-04-24T01:22:15;3.22;;;2.25;;
22186;SDS011;11259;52.146;12.844;2023-04-24T01:24:40;2.40;;;2.00;;
22186;SDS011;11259;52.146;12.844;2023-04-24T01:27:06;3.42;;;2.22;;
22186;SDS011;11259;52.146;12.844;2023-04-24T01:29:32;2.53;;;2.00;;
22186;SDS011;11259;52.146;12.844;2023-04-24T01:31:57;2.92;;;2.30;;
22186;SDS011;11259;52.146;12.844;2023-04-24T01:34:23;2.97;;;2.45;;
22186;SDS011;11259;52.146;12.844;2023-04-24T01:36:48;2.78;;;2.05;;
22186;SDS011;11259;52.146;12.844;2023-04-24T01:39:15;3.10;;;2.20;;
22186;SDS011;11259;52.146;12.844;2023-04-24T01:41:40;2.10;;;1.92;;
22186;SDS011;11259;52.146;12.844;2023-04-24T01:44:06;3.05;;;2.20;;
22186;SDS011;11259;52.146;12.844;2023-04-24T01:46:31;3.13;;;2.47;;
22186;SDS011;11259;52.146;12.844;2023-04-24T01:48:57;2.67;;;2.08;;
22186;SDS011;11259;52.146;12.844;2023-04-24T01:51:23;2.17;;;1.90;;
22186;SDS011;11259;52.146;12.844;2023-04-24T01:53:49;3.58;;;2.03;;
22186;SDS011;11259;52.146;12.844;2023-04-24T01:56:16;3.03;;;2.30;;
22186;SDS011;11259;52.146;12.844;2023-04-24T01:58:41;3.22;;;2.00;;
22186;SDS011;11259;52.146;12.844;2023-04-24T02:01:07;2.85;;;2.25;;
22186;SDS011;11259;52.146;12.844;2023-04-24T02:03:33;2.50;;;2.30;;
22186;SDS011;11259;52.146;12.844;2023-04-24T02:05:58;3.13;;;2.30;;
22186;SDS011;11259;52.146;12.844;2023-04-24T02:08:24;3.63;;;2.40;;
22186;SDS011;11259;52.146;12.844;2023-04-24T02:10:49;3.03;;;2.40;;
22186;SDS011;11259;52.146;12.844;2023-04-24T02:13:16;3.08;;;2.38;;
22186;SDS011;11259;52.146;12.844;2023-04-24T02:15:41;2.60;;;2.20;;
22186;SDS011;11259;52.146;12.844;2023-04-24T02:18:06;3.75;;;2.53;;
22186;SDS011;11259;52.146;12.844;2023-04-24T02:20:32;2.67;;;2.17;;
22186;SDS011;11259;52.146;12.844;2023-04-24T02:22:57;2.58;;;2.05;;
22186;SDS011;11259;52.146;12.844;2023-04-24T02:25:22;3.15;;;2.42;;
22186;SDS011;11259;52.146;12.844;2023-04-24T02:27:48;2.58;;;2.03;;
22186;SDS011;11259;52.146;12.844;2023-04-24T02:30:15;2.35;;;1.92;;
22186;SDS011;11259;52.146;12.844;2023-04-24T02:32:40;3.90;;;2.10;;
22186;SDS011;11259;52.146;12.844;2023-04-24T02:35:05;3.63;;;2.70;;
22186;SDS011;11259;52.146;12.844;2023-04-24T02:37:31;2.25;;;2.05;;
22186;SDS011;11259;52.146;12.844;2023-04-24T02:39:57;2.97;;;2.17;;
22186;SDS011;11259;52.146;12.844;2023-04-24T02:42:22;2.10;;;1.90;;
22186;SDS011;11259;52.146;12.844;2023-04-24T02:44:47;2.65;;;2.20;;
22186;SDS011;11259;52.146;12.844;2023-04-24T02:47:14;2.00;;;1.60;;
22186;SDS011;11259;52.146;12.844;2023-04-24T02:49:39;3.20;;;2.03;;
22186;SDS011;11259;52.146;12.844;2023-04-24T02:52:04;1.98;;;1.65;;
22186;SDS011;11259;52.146;12.844;2023-04-24T02:54:30;2.13;;;1.92;;
22186;SDS011;11259;52.146;12.844;2023-04-24T02:56:55;2.25;;;1.85;;
22186;SDS011;11259;52.146;12.844;2023-04-24T02:59:20;1.70;;;1.60;;
22186;SDS011;11259;52.146;12.844;2023-04-24T03:01:46;2.55;;;2.00;;
22186;SDS011;11259;52.146;12.844;2023-04-24T03:04:12;2.38;;;1.63;;
22186;SDS011;11259;52.146;12.844;2023-04-24T03:06:38;3.20;;;1.80;;
22186;SDS011;11259;52.146;12.844;2023-04-24T03:09:03;1.77;;;1.58;;
22186;SDS011;11259;52.146;12.844;2023-04-24T03:11:28;2.47;;;1.70;;
22186;SDS011;11259;52.146;12.844;2023-04-24T03:13:54;2.67;;;1.80;;
22186;SDS011;11259;52.146;12.844;2023-04-24T03:16:19;1.40;;;1.23;;
22186;SDS011;11259;52.146;12.844;2023-04-24T03:18:44;2.40;;;1.90;;
22186;SDS011;11259;52.146;12.844;2023-04-24T03:21:11;1.40;;;1.30;;
22186;SDS011;11259;52.146;12.844;2023-04-24T03:23:36;1.50;;;1.40;;
22186;SDS011;11259;52.146;12.844;2023-04-24T03:26:02;2.00;;;1.80;;
22186;SDS011;11259;52.146;12.844;2023-04-24T03:28:27;2.00;;;1.35;;
22186;SDS011;11259;52.146;12.844;2023-04-24T03:30:53;1.45;;;1.30;;
22186;SDS011;11259;52.146;12.844;2023-04-24T03:33:18;1.60;;;1.50;;
22186;SDS011;11259;52.146;12.844;2023-04-24T03:35:43;1.58;;;1.35;;
22186;SDS011;11259;52.146;12.844;2023-04-24T03:38:10;1.33;;;1.15;;
22186;SDS011;11259;52.146;12.844;2023-04-24T03:40:35;1.27;;;0.93;;
22186;SDS011;11259;52.146;12.844;2023-04-24T03:43:00;1.10;;;1.00;;
22186;SDS011;11259;52.146;12.844;2023-04-24T03:45:26;1.20;;;1.02;;
22186;SDS011;11259;52.146;12.844;2023-04-24T03:47:51;1.10;;;1.00;;
22186;SDS011;11259;52.146;12.844;2023-04-24T03:50:16;0.70;;;0.70;;
22186;SDS011;11259;52.146;12.844;2023-04-24T03:52:42;0.85;;;0.85;;
22186;SDS011;11259;52.146;12.844;2023-04-24T03:55:09;1.30;;;1.20;;
22186;SDS011;11259;52.146;12.844;2023-04-24T03:57:34;0.88;;;0.80;;
22186;SDS011;11259;52.146;12.844;2023-04-24T03:59:59;1.17;;;0.80;;
22186;SDS011;11259;52.146;12.844;2023-04-24T04:02:25;0.80;;;0.80;;
22186;SDS011;11259;52.146;12.844;2023-04-24T04:04:50;0.68;;;0.68;;
22186;SDS011;11259;52.146;12.844;2023-04-24T04:07:15;0.70;;;0.70;;
22186;SDS011;11259;52.146;12.844;2023-04-24T04:09:41;0.50;;;0.50;;
22186;SDS011;11259;52.146;12.844;2023-04-24T04:12:08;0.50;;;0.50;;
22186;SDS011;11259;52.146;12.844;2023-04-24T04:14:33;1.00;;;0.90;;
22186;SDS011;11259;52.146;12.844;2023-04-24T04:16:58;0.60;;;0.60;;
22186;SDS011;11259;52.146;12.844;2023-04-24T04:19:25;0.60;;;0.60;;
22186;SDS011;11259;52.146;12.844;2023-04-24T04:21:50;0.52;;;0.52;;
22186;SDS011;11259;52.146;12.844;2023-04-24T04:24:16;1.00;;;1.00;;
22186;SDS011;11259;52.146;12.844;2023-04-24T04:26:41;1.13;;;0.70;;
22186;SDS011;11259;52.146;12.844;2023-04-24T04:29:07;0.95;;;0.88;;
22186;SDS011;11259;52.146;12.844;2023-04-24T04:31:33;0.70;;;0.70;;
22186;SDS011;11259;52.146;12.844;2023-04-24T04:33:58;0.73;;;0.73;;
22186;SDS011;11259;52.146;12.844;2023-04-24T04:36:24;0.63;;;0.63;;
22186;SDS011;11259;52.146;12.844;2023-04-24T04:38:49;1.17;;;0.93;;
22186;SDS011;11259;52.146;12.844;2023-04-24T04:41:14;0.70;;;0.70;;
22186;SDS011;11259;52.146;12.844;2023-04-24T04:43:40;0.55;;;0.55;;
22186;SDS011;11259;52.146;12.844;2023-04-24T04:46:06;0.60;;;0.60;;
22186;SDS011;11259;52.146;12.844;2023-04-24T04:48:32;0.50;;;0.50;;
22186;SDS011;11259;52.146;12.844;2023-04-24T04:50:57;2.08;;;0.85;;
22186;SDS011;11259;52.146;12.844;2023-04-24T04:53:22;0.60;;;0.60;;
22186;SDS011;11259;52.146;12.844;2023-04-24T04:55:48;0.60;;;0.60;;
22186;SDS011;11259;52.146;12.844;2023-04-24T04:58:13;0.60;;;0.60;;
22186;SDS011;11259;52.146;12.844;2023-04-24T05:00:39;0.80;;;0.80;;
22186;SDS011;11259;52.146;12.844;2023-04-24T05:03:05;1.33;;;0.60;;
22186;SDS011;11259;52.146;12.844;2023-04-24T05:05:31;1.00;;;0.80;;
22186;SDS011;11259;52.146;12.844;2023-04-24T05:07:56;0.85;;;0.65;;
22186;SDS011;11259;52.146;12.844;2023-04-24T05:10:21;0.60;;;0.60;;
22186;SDS011;11259;52.146;12.844;2023-04-24T05:12:47;0.82;;;0.77;;
22186;SDS011;11259;52.146;12.844;2023-04-24T05:15:12;0.52;;;0.52;;
22186;SDS011;11259;52.146;12.844;2023-04-24T05:17:38;1.00;;;0.95;;
22186;SDS011;11259;52.146;12.844;2023-04-24T05:20:05;0.82;;;0.82;;
22186;SDS011;11259;52.146;12.844;2023-04-24T05:22:31;0.60;;;0.60;;
22186;SDS011;11259;52.146;12.844;2023-04-24T05:24:57;0.60;;;0.60;;
22186;SDS011;11259;52.146;12.844;2023-04-24T05:27:22;0.50;;;0.50;;
22186;SDS011;11259;52.146;12.844;2023-04-24T05:29:47;0.68;;;0.68;;
22186;SDS011;11259;52.146;12.844;2023-04-24T05:32:13;0.60;;;0.60;;
22186;SDS011;11259;52.146;12.844;2023-04-24T05:34:38;0.47;;;0.47;;
22186;SDS011;11259;52.146;12.844;2023-04-24T05:37:05;0.50;;;0.50;;
22186;SDS011;11259;52.146;12.844;2023-04-24T05:39:30;1.17;;;0.68;;
22186;SDS011;11259;52.146;12.844;2023-04-24T05:41:56;0.60;;;0.60;;
22186;SDS011;11259;52.146;12.844;2023-04-24T05:44:21;1.38;;;0.82;;
22186;SDS011;11259;52.146;12.844;2023-04-24T05:46:46;0.60;;;0.60;;
22186;SDS011;11259;52.146;12.844;2023-04-24T05:49:12;0.70;;;0.70;;
22186;SDS011;11259;52.146;12.844;2023-04-24T05:51:37;0.43;;;0.43;;
22186;SDS011;11259;52.146;12.844;2023-04-24T05:54:04;0.57;;;0.57;;
22186;SDS011;11259;52.146;12.844;2023-04-24T05:56:29;0.50;;;0.50;;
22186;SDS011;11259;52.146;12.844;2023-04-24T05:58:54;0.68;;;0.68;;
22186;SDS011;11259;52.146;12.844;2023-04-24T06:01:20;0.60;;;0.60;;
22186;SDS011;11259;52.146;12.844;2023-04-24T06:03:45;0.60;;;0.50;;
22186;SDS011;11259;52.146;12.844;2023-04-24T06:06:10;0.57;;;0.50;;
22186;SDS011;11259;52.146;12.844;2023-04-24T06:08:36;0.40;;;0.40;;
22186;SDS011;11259;52.146;12.844;2023-04-24T06:11:02;0.45;;;0.45;;
22186;SDS011;11259;52.146;12.844;2023-04-24T06:13:28;0.60;;;0.60;;
22186;SDS011;11259;52.146;12.844;2023-04-24T06:15:53;0.40;;;0.40;;
22186;SDS011;11259;52.146;12.844;2023-04-24T06:18:19;0.43;;;0.43;;
22186;SDS011;11259;52.146;12.844;2023-04-24T06:20:44;0.50;;;0.50;;
22186;SDS011;11259;52.146;12.844;2023-04-24T06:23:09;0.50;;;0.50;;
22186;SDS011;11259;52.146;12.844;2023-04-24T06:25:35;0.45;;;0.45;;
22186;SDS011;11259;52.146;12.844;2023-04-24T06:28:01;0.57;;;0.57;;
22186;SDS011;11259;52.146;12.844;2023-04-24T06:30:27;0.60;;;0.60;;
22186;SDS011;11259;52.146;12.844;2023-04-24T06:32:52;0.43;;;0.43;;
22186;SDS011;11259;52.146;12.844;2023-04-24T06:35:17;1.20;;;0.70;;
22186;SDS011;11259;52.146;12.844;2023-04-24T06:37:43;0.43;;;0.43;;
22186;SDS011;11259;52.146;12.844;2023-04-24T06:40:08;0.30;;;0.30;;
22186;SDS011;11259;52.146;12.844;2023-04-24T06:42:35;0.40;;;0.40;;
22186;SDS011;11259;52.146;12.844;2023-04-24T06:45:01;0.43;;;0.43;;
22186;SDS011;11259;52.146;12.844;2023-04-24T06:47:27;0.50;;;0.50;;
22186;SDS011;11259;52.146;12.844;2023-04-24T06:49:52;0.50;;;0.50;;
22186;SDS011;11259;52.146;12.844;2023-04-24T06:52:18;0.50;;;0.50;;
22186;SDS011;11259;52.146;12.844;2023-04-24T06:54:43;0.50;;;0.50;;
22186;SDS011;11259;52.146;12.844;2023-04-24T06:57:09;0.40;;;0.40;;
22186;SDS011;11259;52.146;12.844;2023-04-24T06:59:34;0.50;;;0.50;;
22186;SDS011;11259;52.146;12.844;2023-04-24T07:02:01;0.40;;;0.40;;
22186;SDS011;11259;52.146;12.844;2023-04-24T07:04:26;0.45;;;0.45;;
22186;SDS011;11259;52.146;12.844;2023-04-24T07:06:51;0.50;;;0.50;;
22186;SDS011;11259;52.146;12.844;2023-04-24T07:09:17;0.40;;;0.40;;
22186;SDS011;11259;52.146;12.844;2023-04-24T07:11:42;0.30;;;0.30;;
22186;SDS011;11259;52.146;12.844;2023-04-24T07:14:08;0.60;;;0.50;;
22186;SDS011;11259;52.146;12.844;2023-04-24T07:16:33;0.50;;;0.50;;
22186;SDS011;11259;52.146;12.844;2023-04-24T07:19:00;0.30;;;0.30;;
22186;SDS011;11259;52.146;12.844;2023-04-24T07:21:25;0.45;;;0.45;;
22186;SDS011;11259;52.146;12.844;2023-04-24T07:23:50;2.25;;;0.95;;
22186;SDS011;11259;52.146;12.844;2023-04-24T07:26:16;0.50;;;0.50;;
22186;SDS011;11259;52.146;12.844;2023-04-24T07:28:41;0.60;;;0.60;;
22186;SDS011;11259;52.146;12.844;2023-04-24T07:31:07;0.70;;;0.70;;
22186;SDS011;11259;52.146;12.844;2023-04-24T07:33:33;0.50;;;0.50;;
22186;SDS011;11259;52.146;12.844;2023-04-24T07:35:59;0.43;;;0.43;;
22186;SDS011;11259;52.146;12.844;2023-04-24T07:38:25;0.40;;;0.40;;
22186;SDS011;11259;52.146;12.844;2023-04-24T07:40:50;0.50;;;0.50;;
22186;SDS011;11259;52.146;12.844;2023-04-24T07:43:16;0.60;;;0.60;;
22186;SDS011;11259;52.146;12.844;2023-04-24T07:45:41;0.50;;;0.50;;
22186;SDS011;11259;52.146;12.844;2023-04-24T07:48:06;0.50;;;0.50;;
22186;SDS011;11259;52.146;12.844;2023-04-24T07:50:33;0.40;;;0.40;;
22186;SDS011;11259;52.146;12.844;2023-04-24T07:52:59;0.50;;;0.50;;
22186;SDS011;11259;52.146;12.844;2023-04-24T07:55:25;0.60;;;0.60;;
22186;SDS011;11259;52.146;12.844;2023-04-24T07:57:50;0.50;;;0.50;;
22186;SDS011;11259;52.146;12.844;2023-04-24T08:00:16;1.65;;;0.50;;
22186;SDS011;11259;52.146;12.844;2023-04-24T08:02:42;0.40;;;0.40;;
22186;SDS011;11259;52.146;12.844;2023-04-24T08:05:07;0.63;;;0.63;;
22186;SDS011;11259;52.146;12.844;2023-04-24T08:07:33;0.60;;;0.60;;
22186;SDS011;11259;52.146;12.844;2023-04-24T08:10:00;0.52;;;0.52;;
22186;SDS011;11259;52.146;12.844;2023-04-24T08:12:25;0.50;;;0.50;;
22186;SDS011;11259;52.146;12.844;2023-04-24T08:14:53;1.08;;;0.50;;
22186;SDS011;11259;52.146;12.844;2023-04-24T08:17:18;0.50;;;0.50;;
22186;SDS011;11259;52.146;12.844;2023-04-24T08:19:44;0.60;;;0.60;;
22186;SDS011;11259;52.146;12.844;2023-04-24T08:22:09;0.40;;;0.40;;
22186;SDS011;11259;52.146;12.844;2023-04-24T08:24:34;0.73;;;0.73;;
22186;SDS011;11259;52.146;12.844;2023-04-24T08:27:01;0.52;;;0.52;;
22186;SDS011;11259;52.146;12.844;2023-04-24T08:29:26;0.63;;;0.63;;
22186;SDS011;11259;52.146;12.844;2023-04-24T08:31:52;1.88;;;0.80;;
22186;SDS011;11259;52.146;12.844;2023-04-24T08:34:17;0.68;;;0.60;;
22186;SDS011;11259;52.146;12.844;2023-04-24T08:36:42;0.50;;;0.50;;
22186;SDS011;11259;52.146;12.844;2023-04-24T08:39:08;0.60;;;0.60;;
22186;SDS011;11259;52.146;12.844;2023-04-24T08:41:33;1.23;;;0.60;;
22186;SDS011;11259;52.146;12.844;2023-04-24T08:44:00;0.52;;;0.50;;
22186;SDS011;11259;52.146;12.844;2023-04-24T08:46:26;0.60;;;0.60;;
22186;SDS011;11259;52.146;12.844;2023-04-24T08:48:52;0.50;;;0.50;;
22186;SDS011;11259;52.146;12.844;2023-04-24T08:51:17;0.73;;;0.70;;
22186;SDS011;11259;52.146;12.844;2023-04-24T08:53:43;0.65;;;0.50;;
22186;SDS011;11259;52.146;12.844;2023-04-24T08:56:10;0.70;;;0.70;;
22186;SDS011;11259;52.146;12.844;2023-04-24T08:58:36;0.57;;;0.57;;
22186;SDS011;11259;52.146;12.844;2023-04-24T09:01:03;0.60;;;0.60;;
22186;SDS011;11259;52.146;12.844;2023-04-24T09:03:29;0.73;;;0.73;;
22186;SDS011;11259;52.146;12.844;2023-04-24T09:05:55;0.70;;;0.70;;
22186;SDS011;11259;52.146;12.844;2023-04-24T09:08:21;0.50;;;0.50;;
22186;SDS011;11259;52.146;12.844;2023-04-24T09:10:49;0.70;;;0.70;;
22186;SDS011;11259;52.146;12.844;2023-04-24T09:13:14;0.57;;;0.57;;
22186;SDS011;11259;52.146;12.844;2023-04-24T09:15:40;0.70;;;0.70;;
22186;SDS011;11259;52.146;12.844;2023-04-24T09:18:07;0.63;;;0.63;;
22186;SDS011;11259;52.146;12.844;2023-04-24T09:20:32;0.57;;;0.57;;
22186;SDS011;11259;52.146;12.844;2023-04-24T09:22:58;0.65;;;0.65;;
22186;SDS011;11259;52.146;12.844;2023-04-24T09:25:25;0.60;;;0.60;;
22186;SDS011;11259;52.146;12.844;2023-04-24T09:27:57;0.47;;;0.47;;
22186;SDS011;11259;52.146;12.844;2023-04-24T09:30:25;0.88;;;0.88;;
22186;SDS011;11259;52.146;12.844;2023-04-24T09:32:53;0.40;;;0.40;;
22186;SDS011;11259;52.146;12.844;2023-04-24T09:35:36;0.50;;;0.50;;
22186;SDS011;11259;52.146;12.844;2023-04-24T09:38:01;0.43;;;0.43;;
22186;SDS011;11259;52.146;12.844;2023-04-24T09:40:26;0.50;;;0.50;;
22186;SDS011;11259;52.146;12.844;2023-04-24T09:42:52;0.50;;;0.50;;
22186;SDS011;11259;52.146;12.844;2023-04-24T09:45:19;0.68;;;0.63;;
22186;SDS011;11259;52.146;12.844;2023-04-24T09:47:44;0.40;;;0.40;;
22186;SDS011;11259;52.146;12.844;2023-04-24T09:50:15;0.47;;;0.47;;
22186;SDS011;11259;52.146;12.844;2023-04-24T09:52:42;0.50;;;0.50;;
22186;SDS011;11259;52.146;12.844;2023-04-24T09:55:12;1.17;;;0.60;;
22186;SDS011;11259;52.146;12.844;2023-04-24T09:57:50;0.50;;;0.50;;
22186;SDS011;11259;52.146;12.844;2023-04-24T10:00:22;0.60;;;0.60;;
22186;SDS011;11259;52.146;12.844;2023-04-24T10:02:54;0.57;;;0.57;;
22186;SDS011;11259;52.146;12.844;2023-04-24T10:05:24;0.50;;;0.50;;
22186;SDS011;11259;52.146;12.844;2023-04-24T10:07:50;0.40;;;0.40;;
22186;SDS011;11259;52.146;12.844;2023-04-24T10:10:15;0.40;;;0.40;;
22186;SDS011;11259;52.146;12.844;2023-04-24T10:12:41;0.47;;;0.47;;
22186;SDS011;11259;52.146;12.844;2023-04-24T10:15:07;0.50;;;0.50;;
22186;SDS011;11259;52.146;12.844;2023-04-24T10:17:33;0.47;;;0.45;;
22186;SDS011;11259;52.146;12.844;2023-04-24T10:19:59;0.60;;;0.60;;
22186;SDS011;11259;52.146;12.844;2023-04-24T10:22:26;0.50;;;0.50;;
22186;SDS011;11259;52.146;12.844;2023-04-24T10:24:52;0.68;;;0.68;;
22186;SDS011;11259;52.146;12.844;2023-04-24T10:27:17;0.50;;;0.50;;
22186;SDS011;11259;52.146;12.844;2023-04-24T10:29:45;0.63;;;0.60;;
22186;SDS011;11259;52.146;12.844;2023-04-24T10:32:12;0.50;;;0.50;;
22186;SDS011;11259;52.146;12.844;2023-04-24T10:34:37;0.47;;;0.47;;
22186;SDS011;11259;52.146;12.844;2023-04-24T10:37:02;0.50;;;0.50;;
22186;SDS011;11259;52.146;12.844;2023-04-24T10:39:29;0.57;;;0.57;;
22186;SDS011;11259;52.146;12.844;2023-04-24T10:41:55;1.13;;;0.60;;
22186;SDS011;11259;52.146;12.844;2023-04-24T10:44:20;0.55;;;0.55;;
22186;SDS011;11259;52.146;12.844;2023-04-24T10:46:47;0.68;;;0.68;;
22186;SDS011;11259;52.146;12.844;2023-04-24T10:49:18;0.55;;;0.55;;
22186;SDS011;11259;52.146;12.844;2023-04-24T10:51:53;0.73;;;0.57;;
22186;SDS011;11259;52.146;12.844;2023-04-24T10:54:22;0.70;;;0.60;;
22186;SDS011;11259;52.146;12.844;2023-04-24T10:56:50;0.60;;;0.60;;
22186;SDS011;11259;52.146;12.844;2023-04-24T10:59:23;0.60;;;0.60;;
22186;SDS011;11259;52.146;12.844;2023-04-24T11:01:52;0.40;;;0.40;;
22186;SDS011;11259;52.146;12.844;2023-04-24T11:04:21;0.70;;;0.70;;
22186;SDS011;11259;52.146;12.844;2023-04-24T11:06:53;1.15;;;0.90;;
22186;SDS011;11259;52.146;12.844;2023-04-24T11:09:19;2.85;;;1.52;;
22186;SDS011;11259;52.146;12.844;2023-04-24T11:11:46;3.08;;;2.20;;
22186;SDS011;11259;52.146;12.844;2023-04-24T11:14:14;3.53;;;1.30;;
22186;SDS011;11259;52.146;12.844;2023-04-24T11:16:43;1.75;;;1.20;;
22186;SDS011;11259;52.146;12.844;2023-04-24T11:19:09;0.80;;;0.80;;
22186;SDS011;11259;52.146;12.844;2023-04-24T11:21:42;1.17;;;0.85;;
22186;SDS011;11259;52.146;12.844;2023-04-24T11:24:22;1.15;;;0.93;;
22186;SDS011;11259;52.146;12.844;2023-04-24T11:26:48;0.60;;;0.60;;
22186;SDS011;11259;52.146;12.844;2023-04-24T11:29:17;0.50;;;0.50;;
22186;SDS011;11259;52.146;12.844;2023-04-24T11:31:45;0.70;;;0.68;;
22186;SDS011;11259;52.146;12.844;2023-04-24T11:34:11;0.55;;;0.50;;
22186;SDS011;11259;52.146;12.844;2023-04-24T11:36:37;0.70;;;0.70;;
22186;SDS011;11259;52.146;12.844;2023-04-24T11:39:03;0.60;;;0.60;;
22186;SDS011;11259;52.146;12.844;2023-04-24T11:41:28;0.50;;;0.50;;
22186;SDS011;11259;52.146;12.844;2023-04-24T11:43:54;0.50;;;0.50;;
22186;SDS011;11259;52.146;12.844;2023-04-24T11:46:21;0.60;;;0.60;;
22186;SDS011;11259;52.146;12.844;2023-04-24T11:48:47;0.57;;;0.57;;
22186;SDS011;11259;52.146;12.844;2023-04-24T11:51:12;0.50;;;0.50;;
22186;SDS011;11259;52.146;12.844;2023-04-24T11:53:37;0.50;;;0.50;;
22186;SDS011;11259;52.146;12.844;2023-04-24T11:56:03;0.40;;;0.40;;
22186;SDS011;11259;52.146;12.844;2023-04-24T11:58:34;0.43;;;0.43;;
22186;SDS011;11259;52.146;12.844;2023-04-24T12:00:59;0.50;;;0.50;;
22186;SDS011;11259;52.146;12.844;2023-04-24T12:03:26;0.60;;;0.60;;
22186;SDS011;11259;52.146;12.844;2023-04-24T12:05:51;0.68;;;0.68;;
22186;SDS011;11259;52.146;12.844;2023-04-24T12:08:26;0.40;;;0.40;;
22186;SDS011;11259;52.146;12.844;2023-04-24T12:10:52;0.50;;;0.50;;
22186;SDS011;11259;52.146;12.844;2023-04-24T12:13:17;0.50;;;0.50;;
22186;SDS011;11259;52.146;12.844;2023-04-24T12:15:43;0.60;;;0.50;;
22186;SDS011;11259;52.146;12.844;2023-04-24T12:18:08;0.40;;;0.40;;
22186;SDS011;11259;52.146;12.844;2023-04-24T12:20:38;0.50;;;0.50;;
22186;SDS011;11259;52.146;12.844;2023-04-24T12:23:05;0.52;;;0.50;;
22186;SDS011;11259;52.146;12.844;2023-04-24T12:25:31;0.50;;;0.50;;
22186;SDS011;11259;52.146;12.844;2023-04-24T12:28:08;0.50;;;0.50;;
22186;SDS011;11259;52.146;12.844;2023-04-24T12:30:34;0.90;;;0.73;;
22186;SDS011;11259;52.146;12.844;2023-04-24T12:33:01;0.52;;;0.52;;
22186;SDS011;11259;52.146;12.844;2023-04-24T12:35:27;0.60;;;0.60;;
22186;SDS011;11259;52.146;12.844;2023-04-24T12:37:55;0.73;;;0.70;;
22186;SDS011;11259;52.146;12.844;2023-04-24T12:40:21;0.50;;;0.50;;
22186;SDS011;11259;52.146;12.844;2023-04-24T12:42:47;0.52;;;0.52;;
22186;SDS011;11259;52.146;12.844;2023-04-24T12:45:13;0.45;;;0.45;;
22186;SDS011;11259;52.146;12.844;2023-04-24T12:47:39;0.57;;;0.50;;
22186;SDS011;11259;52.146;12.844;2023-04-24T12:50:06;0.60;;;0.60;;
22186;SDS011;11259;52.146;12.844;2023-04-24T12:52:32;0.60;;;0.60;;
22186;SDS011;11259;52.146;12.844;2023-04-24T12:54:59;0.60;;;0.60;;
22186;SDS011;11259;52.146;12.844;2023-04-24T12:57:25;0.50;;;0.50;;
22186;SDS011;11259;52.146;12.844;2023-04-24T12:59:53;0.68;;;0.68;;
22186;SDS011;11259;52.146;12.844;2023-04-24T13:02:18;0.68;;;0.68;;
22186;SDS011;11259;52.146;12.844;2023-04-24T13:04:44;0.98;;;0.88;;
22186;SDS011;11259;52.146;12.844;2023-04-24T13:07:09;0.63;;;0.63;;
22186;SDS011;11259;52.146;12.844;2023-04-24T13:09:35;1.13;;;1.02;;
22186;SDS011;11259;52.146;12.844;2023-04-24T13:12:01;2.20;;;1.33;;
22186;SDS011;11259;52.146;12.844;2023-04-24T13:14:27;1.05;;;0.88;;
22186;SDS011;11259;52.146;12.844;2023-04-24T13:16:52;0.95;;;0.90;;
22186;SDS011;11259;52.146;12.844;2023-04-24T13:19:18;1.10;;;0.95;;
22186;SDS011;11259;52.146;12.844;2023-04-24T13:21:43;1.13;;;0.93;;
22186;SDS011;11259;52.146;12.844;2023-04-24T13:24:08;1.00;;;0.90;;
22186;SDS011;11259;52.146;12.844;2023-04-24T13:26:34;3.10;;;1.23;;
22186;SDS011;11259;52.146;12.844;2023-04-24T13:29:01;2.90;;;1.60;;
22186;SDS011;11259;52.146;12.844;2023-04-24T13:31:26;4.63;;;1.70;;
22186;SDS011;11259;52.146;12.844;2023-04-24T13:33:52;1.65;;;1.17;;
22186;SDS011;11259;52.146;12.844;2023-04-24T13:36:17;1.27;;;0.88;;
22186;SDS011;11259;52.146;12.844;2023-04-24T13:38:43;0.82;;;0.65;;
22186;SDS011;11259;52.146;12.844;2023-04-24T13:41:08;1.13;;;1.02;;
22186;SDS011;11259;52.146;12.844;2023-04-24T13:43:34;1.00;;;0.90;;
22186;SDS011;11259;52.146;12.844;2023-04-24T13:46:01;0.95;;;0.85;;
22186;SDS011;11259;52.146;12.844;2023-04-24T13:48:26;1.27;;;1.00;;
22186;SDS011;11259;52.146;12.844;2023-04-24T13:50:51;0.90;;;0.80;;
22186;SDS011;11259;52.146;12.844;2023-04-24T13:53:17;1.23;;;1.05;;
22186;SDS011;11259;52.146;12.844;2023-04-24T13:55:42;1.17;;;1.08;;
22186;SDS011;11259;52.146;12.844;2023-04-24T13:58:08;0.80;;;0.80;;
22186;SDS011;11259;52.146;12.844;2023-04-24T14:00:33;0.75;;;0.75;;
22186;SDS011;11259;52.146;12.844;2023-04-24T14:03:00;1.00;;;0.90;;
22186;SDS011;11259;52.146;12.844;2023-04-24T14:05:25;0.80;;;0.80;;
22186;SDS011;11259;52.146;12.844;2023-04-24T14:07:50;0.80;;;0.70;;
22186;SDS011;11259;52.146;12.844;2023-04-24T14:10:16;0.98;;;0.90;;
22186;SDS011;11259;52.146;12.844;2023-04-24T14:12:41;0.80;;;0.80;;
22186;SDS011;11259;52.146;12.844;2023-04-24T14:15:07;0.80;;;0.80;;
22186;SDS011;11259;52.146;12.844;2023-04-24T14:17:33;0.60;;;0.60;;
22186;SDS011;11259;52.146;12.844;2023-04-24T14:20:00;0.65;;;0.65;;
22186;SDS011;11259;52.146;12.844;2023-04-24T14:22:25;1.00;;;0.85;;
22186;SDS011;11259;52.146;12.844;2023-04-24T14:24:50;1.00;;;0.90;;
22186;SDS011;11259;52.146;12.844;2023-04-24T14:27:16;0.93;;;0.75;;